ADDS METAR Data INFO
IDs: Format: Raw Decoded Include TAF

Data at: 1143 UTC 23 Jun 2018

PABV 231056Z AUTO 16003KT 10SM FEW011 BKN022 OVC044 11/09 A3015 RMK AO2 RAE41 SLP219 P0000 T01060094 $
PABV 230956Z AUTO 11003KT 7SM -RA OVC018 11/09 A3015 RMK AO2 RAB34 SLP219 P0000 T01060094 $
PABV 230932Z AUTO 00000KT 10SM BKN016 OVC032 11/09 A3015 RMK AO2 $
PABV 230856Z AUTO 00000KT 10SM SCT018 OVC030 11/09 A3015 RMK AO2 RAB08E53 SLP218 P0000 60000 T01110094 51005 $
PABV 230852Z AUTO 00000KT 10SM -RA BKN018 OVC030 11/09 A3015 RMK AO2 RAB08 P0000 $
PABV 230817Z AUTO 00000KT 10SM -RA OVC030 11/09 A3015 RMK AO2 RAB08 P0000 $
PABV 230756Z AUTO VRB03KT 10SM BKN028 BKN038 OVC050 11/09 A3015 RMK AO2 RAE29 SLP217 P0000 T01110089 401390106 $
PABV 230721Z AUTO 27003KT 10SM -RA BKN028 OVC036 11/09 A3014 RMK AO2 P0000 $
PABV 230705Z AUTO VRB03KT 10SM -RA SCT028 OVC036 11/09 A3014 RMK AO2 P0000 $
PABV 230656Z AUTO 00000KT 10SM -RA BKN028 OVC034 12/09 A3013 RMK AO2 RAB51 SLP213 P0000 T01170089 $
PABV 230635Z AUTO 00000KT 10SM SCT026 OVC034 12/09 A3013 RMK AO2 $
PABV 230620Z AUTO 00000KT 10SM BKN025 BKN031 OVC041 12/09 A3013 RMK AO2 $
PABV 230556Z AUTO VRB03KT 10SM SCT023 BKN035 OVC055 12/09 A3013 RMK AO2 SLP210 T01220089 10139 20111 53005 $
PABV 230456Z AUTO VRB05KT 10SM OVC042 12/08 A3012 RMK AO2 SLP208 T01170083 $
PABV 230356Z AUTO 26008KT 10SM FEW040 OVC075 13/08 A3012 RMK AO2 SLP207 T01280083 $
PABV 230156Z AUTO 26010KT 10SM FEW024 OVC080 13/08 A3011 RMK AO2 SLP204 T01280083 $
PABV 230137Z AUTO 27009KT 10SM FEW022 BKN080 13/08 A3011 RMK AO2 $
PABV 230056Z AUTO VRB04KT 10SM OVC020 13/08 A3011 RMK AO2 SLP203 T01330083 $
PABV 222356Z AUTO 26005KT 10SM OVC018 13/09 A3010 RMK AO2 SLP201 60000 T01280089 10133 20117 53002 $
PABV 222256Z AUTO VRB03KT 10SM OVC016 13/09 A3010 RMK AO2 RAB11E21 SLP201 P0000 T01330089 $
PABV 222156Z AUTO 26007KT 10SM OVC016 12/09 A3009 RMK AO2 SLP199 T01220094 $
PABV 222151Z AUTO 27006KT 10SM OVC016 12/09 A3009 RMK AO2 $
PABV 222056Z AUTO 27005KT 10SM OVC014 12/09 A3009 RMK AO2 RAE21 SLP196 P0000 60000 T01220094 53009 $
PABV 222028Z AUTO 27006KT 10SM BKN014 BKN033 OVC040 12/09 A3008 RMK AO2 RAE21 P0000 $
PABV 222008Z AUTO 27008KT 10SM -RA SCT016 OVC035 12/09 A3008 RMK AO2 P0000 $
PABV 221956Z AUTO 25006KT 10SM -RA BKN016 OVC037 12/10 A3007 RMK AO2 RAB39 SLP192 P0000 T01220100 $
PABV 221953Z AUTO 26006KT 10SM -RA BKN016 BKN025 OVC037 12/10 A3007 RMK AO2 RAB39 P0000 $
PABV 221941Z AUTO 26008KT 10SM -RA BKN014 OVC025 12/10 A3007 RMK AO2 RAB39 P0000 $
PABV 221856Z AUTO 26009KT 10SM OVC027 12/10 A3006 RMK AO2 SLP187 T01170100 $
PABV 221833Z AUTO 27007KT 10SM BKN029 OVC055 12/10 A3005 RMK AO2 $
PABV 221756Z AUTO VRB04KT 10SM OVC070 12/10 A3004 RMK AO2 RAB30E52 SLP182 P0000 60000 T01220100 10128 20111 51017 $
PABV 221656Z AUTO 00000KT 10SM SCT070 OVC090 12/09 A3003 RMK AO2 SLP178 T01220094 $
PABV 221556Z AUTO 00000KT 10SM OVC070 12/09 A3001 RMK AO2 SLP171 T01220089 $
PABV 221456Z AUTO 00000KT 10SM OVC090 12/09 A2999 RMK AO2 SLP165 60000 T01220089 51019 $
PABV 221356Z AUTO 00000KT 10SM OVC080 12/09 A2998 RMK AO2 RAB39E50 SLP160 P0000 T01170094 $
PABV 221256Z AUTO 13004KT 10SM SCT075 OVC085 12/08 A2996 RMK AO2 SLP152 T01170078 $
PABV 221156Z AUTO 13003KT 10SM BKN048 BKN065 OVC085 12/08 A2994 RMK AO2 SLP146 T01170078 10139 20117 51018 $
PABV 221056Z AUTO 11004KT 10SM BKN090 12/08 A2993 RMK AO2 SLP143 T01170078 $
PABV 220956Z AUTO 12003KT 10SM FEW065 BKN080 BKN090 12/08 A2991 RMK AO2 SLP136 T01220078 $
PABV 220856Z AUTO 13003KT 10SM BKN060 12/08 A2989 RMK AO2 SLP128 T01220083 51016 $
PABV 220756Z AUTO 11005KT 10SM BKN085 13/08 A2987 RMK AO2 SLP123 T01330083 401830128 $
PABV 220656Z AUTO 13003KT 10SM SCT049 SCT090 14/08 A2986 RMK AO2 SLP119 T01390083 $
PABV 220556Z AUTO 00000KT 10SM BKN045 13/09 A2984 RMK AO2 SLP113 T01330089 10183 20133 53010 $
PABV 220456Z AUTO 01003KT 10SM BKN060 OVC080 14/08 A2983 RMK AO2 SLP108 T01390083 $
PABV 220438Z AUTO 35004KT 10SM SCT028 BKN055 OVC075 16/09 A2982 RMK AO2 $
PABV 220429Z AUTO 07003KT 10SM BKN028 OVC055 16/09 A2982 RMK AO2 $
PABV 220356Z AUTO 20003KT 10SM OVC050 15/09 A2982 RMK AO2 SLP104 T01500089 $
PABV 220256Z AUTO 27004KT 10SM BKN060 OVC120 18/12 A2981 RMK AO2 SLP102 T01780122 51006 $
PABV 220156Z AUTO 00000KT 10SM FEW060 BKN085 18/12 A2980 RMK AO2 SLP100 T01780117 $
PABV 220056Z AUTO 00000KT 10SM OVC075 17/11 A2980 RMK AO2 SLP099 T01720111 $
PABV 212356Z AUTO 22004KT 10SM OVC080 17/11 A2979 RMK AO2 SLP096 T01720106 10172 20139 51007 $